createdAt,value
2023-07-28T00:00:11.403Z,99227.39
2023-07-28T00:03:04.904Z,99224.97
2023-07-28T00:05:42.194Z,99226.64
2023-07-28T00:08:33.536Z,99222.65
2023-07-28T00:11:10.397Z,99219.44
2023-07-28T00:13:48.441Z,99213.22
2023-07-28T00:16:39.017Z,99208.01
2023-07-28T00:19:35.115Z,99206.09
2023-07-28T00:22:21.626Z,99201.34
2023-07-28T00:24:59.154Z,99202.29
2023-07-28T00:27:54.271Z,99195.70
2023-07-28T00:30:42.809Z,99183.91
2023-07-28T00:33:38.530Z,99183.30
2023-07-28T00:36:17.855Z,99181.04
2023-07-28T00:38:55.431Z,99175.12
2023-07-28T00:41:35.289Z,99175.14
2023-07-28T00:44:32.684Z,99175.27
2023-07-28T00:47:17.721Z,99163.50
2023-07-28T00:49:48.030Z,99161.88
2023-07-28T00:53:08.221Z,99165.48
2023-07-28T00:56:00.813Z,99166.13
2023-07-28T00:58:52.309Z,99165.08
2023-07-28T01:01:41.791Z,99165.21
2023-07-28T01:04:29.909Z,99163.19
2023-07-28T01:07:39.081Z,99166.47
2023-07-28T01:10:39.631Z,99169.59
2023-07-28T01:13:14.680Z,99166.63
2023-07-28T01:16:13.542Z,99160.77
2023-07-28T01:18:50.981Z,99161.16
2023-07-28T01:21:46.630Z,99156.63
2023-07-28T01:25:11.483Z,99151.80
2023-07-28T01:28:06.424Z,99145.38
2023-07-28T01:31:09.591Z,99143.63
2023-07-28T01:33:57.641Z,99137.72
2023-07-28T01:36:49.970Z,99141.66
2023-07-28T01:39:31.085Z,99148.33
2023-07-28T01:42:18.596Z,99144.20
2023-07-28T01:45:07.381Z,99146.41
2023-07-28T01:48:06.698Z,99144.14
2023-07-28T01:51:06.624Z,99147.02
2023-07-28T01:54:19.303Z,99139.34
2023-07-28T01:57:20.080Z,99133.63
2023-07-28T02:00:17.223Z,99125.49
2023-07-28T02:02:53.618Z,99122.27
2023-07-28T02:05:42.376Z,99119.77
2023-07-28T02:08:24.821Z,99119.87
2023-07-28T02:11:06.379Z,99122.90
2023-07-28T02:13:43.230Z,99126.63
2023-07-28T02:16:18.090Z,99123.27
2023-07-28T02:18:51.287Z,99120.98
2023-07-28T02:21:34.468Z,99117.48
2023-07-28T02:24:04.312Z,99109.99
2023-07-28T02:26:49.293Z,99104.52
2023-07-28T02:29:22.272Z,99100.66
2023-07-28T02:32:16.871Z,99096.56
2023-07-28T02:35:02.392Z,99096.77
2023-07-28T02:38:00.839Z,99096.46
2023-07-28T02:40:50.347Z,99092.44
2023-07-28T02:43:48.501Z,99095.67
2023-07-28T02:46:39.744Z,99095.99
2023-07-28T02:49:14.768Z,99091.77
2023-07-28T02:52:06.952Z,99087.18
2023-07-28T02:54:51.923Z,99089.48
2023-07-28T02:57:46.196Z,99093.84
2023-07-28T03:00:21.451Z,99095.34
2023-07-28T03:02:52.542Z,99099.54
2023-07-28T03:05:30.209Z,99095.33
2023-07-28T03:08:40.311Z,99094.51
2023-07-28T03:11:52.494Z,99087.00
2023-07-28T03:14:40.804Z,99082.65
2023-07-28T03:17:39.567Z,99081.73
2023-07-28T03:20:26.238Z,99081.56
2023-07-28T03:23:03.679Z,99080.21
2023-07-28T03:25:53.884Z,99079.88
2023-07-28T03:28:30.442Z,99079.20
2023-07-28T03:31:26.450Z,99080.14
2023-07-28T03:34:01.704Z,99077.70
2023-07-28T03:36:48.981Z,99075.30
2023-07-28T03:39:37.738Z,99076.46
2023-07-28T03:42:18.439Z,99076.68
2023-07-28T03:45:17.185Z,99076.22
2023-07-28T03:48:06.093Z,99075.14
2023-07-28T03:51:00.400Z,99075.80
2023-07-28T03:53:54.710Z,99075.08
2023-07-28T03:56:33.063Z,99072.84
2023-07-28T03:59:05.824Z,99069.42
2023-07-28T04:01:53.994Z,99065.23
2023-07-28T04:04:44.499Z,99062.55
2023-07-28T04:07:32.259Z,99059.81
2023-07-28T04:10:11.503Z,99057.52
2023-07-28T04:12:41.607Z,99058.80
2023-07-28T04:15:16.779Z,99054.43
2023-07-28T04:18:11.821Z,99048.66
2023-07-28T04:20:48.781Z,99048.74
2023-07-28T04:23:45.440Z,99045.52
2023-07-28T04:26:22.146Z,99043.28
2023-07-28T04:28:54.524Z,99048.05
2023-07-28T04:31:28.999Z,99049.98
2023-07-28T04:34:05.115Z,99052.10
2023-07-28T04:37:03.640Z,99048.65
2023-07-28T04:39:42.393Z,99046.30
2023-07-28T04:42:25.372Z,99040.15
2023-07-28T04:44:59.051Z,99044.27
2023-07-28T04:47:37.963Z,99035.27
2023-07-28T04:50:41.146Z,99037.59
2023-07-28T04:53:40.687Z,99031.55
2023-07-28T04:56:30.113Z,99031.08
2023-07-28T04:59:18.835Z,99031.90
2023-07-28T05:02:05.335Z,99030.24
2023-07-28T05:04:46.985Z,99028.31
2023-07-28T05:07:30.667Z,99026.24
2023-07-28T05:10:25.454Z,99030.58
2023-07-28T05:13:09.679Z,99036.31
2023-07-28T05:15:40.869Z,99037.69
2023-07-28T05:18:19.454Z,99038.97
2023-07-28T05:21:30.745Z,99037.82
2023-07-28T05:24:02.632Z,99036.89
2023-07-28T05:26:36.098Z,99036.86
2023-07-28T05:29:12.001Z,99039.45
2023-07-28T05:31:44.934Z,99037.45
2023-07-28T05:34:29.007Z,99034.31
2023-07-28T05:37:01.300Z,99032.91
2023-07-28T05:39:37.378Z,99034.73
2023-07-28T05:42:14.562Z,99026.98
2023-07-28T05:45:16.335Z,99026.20
2023-07-28T05:48:04.998Z,99024.17
2023-07-28T05:51:01.077Z,99018.38
2023-07-28T05:53:46.378Z,99016.17
2023-07-28T05:56:20.769Z,99016.67
2023-07-28T05:58:59.810Z,99021.58
2023-07-28T06:01:33.538Z,99020.51
2023-07-28T06:04:39.920Z,99021.66
2023-07-28T06:07:28.440Z,99025.05
2023-07-28T06:09:59.103Z,99025.08
2023-07-28T06:12:38.061Z,99025.60
2023-07-28T06:15:11.785Z,99027.62
2023-07-28T06:17:42.267Z,99029.06
2023-07-28T06:20:29.767Z,99026.02
2023-07-28T06:23:06.711Z,99026.81
2023-07-28T06:25:47.749Z,99027.19
2023-07-28T06:28:25.449Z,99029.91
2023-07-28T06:31:11.195Z,99030.06
2023-07-28T06:33:47.749Z,99028.61
2023-07-28T06:36:32.988Z,99027.92
2023-07-28T06:39:16.571Z,99023.94
2023-07-28T06:41:49.367Z,99023.13
2023-07-28T06:44:22.318Z,99023.11
2023-07-28T06:47:02.967Z,99017.76
2023-07-28T06:49:36.521Z,99019.92
2023-07-28T06:52:53.990Z,99012.24
2023-07-28T06:55:40.435Z,99010.45
2023-07-28T06:58:32.321Z,99007.30
2023-07-28T07:01:13.524Z,99006.09
2023-07-28T07:03:44.091Z,99001.92
2023-07-28T07:06:25.505Z,99005.38
2023-07-28T07:09:02.327Z,99001.40
2023-07-28T07:11:40.738Z,99003.61
2023-07-28T07:14:11.758Z,98999.52
2023-07-28T07:16:51.921Z,98999.46
2023-07-28T07:19:22.899Z,98999.70
2023-07-28T07:21:54.174Z,98998.58
2023-07-28T07:24:29.623Z,98997.75
2023-07-28T07:27:03.228Z,98994.31
2023-07-28T07:29:34.212Z,98996.73
2023-07-28T07:32:05.597Z,98993.34
2023-07-28T07:34:45.129Z,98987.58
2023-07-28T07:37:22.920Z,98992.34
2023-07-28T07:39:56.786Z,98994.54
2023-07-28T07:42:45.753Z,98991.31
2023-07-28T07:45:21.385Z,98995.94
2023-07-28T07:47:57.409Z,98997.42
2023-07-28T07:50:32.131Z,98994.65
2023-07-28T07:53:55.507Z,98996.54
2023-07-28T07:56:30.459Z,98988.79
2023-07-28T07:59:03.224Z,98993.63
2023-07-28T08:01:47.569Z,98995.84
2023-07-28T08:04:26.017Z,99001.39
2023-07-28T08:06:57.884Z,99003.00
2023-07-28T08:09:28.735Z,99002.05
2023-07-28T08:12:02.247Z,99000.30
2023-07-28T08:14:32.510Z,99002.05
2023-07-28T08:17:07.011Z,99004.64
2023-07-28T08:19:43.718Z,99004.36
2023-07-28T08:22:16.741Z,98999.54
2023-07-28T08:24:51.176Z,99002.05
2023-07-28T08:27:33.039Z,99009.53
2023-07-28T08:30:20.560Z,99006.65
2023-07-28T08:32:53.623Z,99002.50
2023-07-28T08:36:12.567Z,98998.16
2023-07-28T08:38:46.745Z,98990.64
2023-07-28T08:41:19.574Z,98984.15
2023-07-28T08:44:05.852Z,98982.69
2023-07-28T08:46:50.690Z,98991.52
2023-07-28T08:49:32.851Z,98994.94
2023-07-28T08:52:05.516Z,98989.71
2023-07-28T08:54:41.602Z,98984.27
2023-07-28T08:57:13.069Z,98986.86
2023-07-28T08:59:54.702Z,98983.11
2023-07-28T09:02:31.916Z,98981.13
2023-07-28T09:05:08.361Z,98978.30
2023-07-28T09:07:40.520Z,98974.36
2023-07-28T09:10:10.928Z,98974.70
2023-07-28T09:12:56.209Z,98972.20
2023-07-28T09:15:26.591Z,98973.09
2023-07-28T09:18:03.483Z,98972.34
2023-07-28T09:20:40.075Z,98979.15
2023-07-28T09:23:11.691Z,98980.58
2023-07-28T09:25:41.712Z,98976.50
2023-07-28T09:28:13.811Z,98980.42
2023-07-28T09:30:50.834Z,98981.42
2023-07-28T09:33:40.955Z,98983.61
2023-07-28T09:36:18.649Z,98976.18
2023-07-28T09:38:52.868Z,98977.60
2023-07-28T09:41:34.659Z,98981.92
2023-07-28T09:44:07.976Z,98982.11
2023-07-28T09:47:02.112Z,98971.36
2023-07-28T09:49:45.553Z,98951.57
2023-07-28T09:52:51.627Z,98927.51
2023-07-28T09:55:24.497Z,98940.81
2023-07-28T09:57:57.625Z,98961.34
2023-07-28T10:00:28.044Z,98966.89
2023-07-28T10:03:06.445Z,98967.30
2023-07-28T10:05:42.438Z,98975.82
2023-07-28T10:08:19.204Z,98980.30
2023-07-28T10:11:03.598Z,98984.16
2023-07-28T10:13:56.889Z,98983.73
2023-07-28T10:16:49.981Z,98979.95
2023-07-28T10:19:23.800Z,98982.75
2023-07-28T10:22:03.994Z,98977.89
2023-07-28T10:25:13.400Z,98945.55
2023-07-28T10:27:56.480Z,98926.54
2023-07-28T10:30:27.271Z,98913.48
2023-07-28T10:32:58.041Z,98912.04
2023-07-28T10:35:35.582Z,98917.27
2023-07-28T10:38:37.915Z,98928.30
2023-07-28T10:41:17.170Z,98935.46
2023-07-28T10:43:53.529Z,98940.67
2023-07-28T10:46:30.044Z,98937.83
2023-07-28T10:49:10.401Z,98931.73
2023-07-28T10:52:56.025Z,98926.58
2023-07-28T10:55:34.005Z,98922.11
2023-07-28T10:58:05.461Z,98923.62
2023-07-28T11:00:35.845Z,98924.48
2023-07-28T11:03:07.449Z,98933.45
2023-07-28T11:05:47.238Z,98936.36
2023-07-28T11:08:21.450Z,98940.71
2023-07-28T11:10:52.919Z,98946.83
2023-07-28T11:13:40.399Z,98946.06
2023-07-28T11:16:12.329Z,98946.52
2023-07-28T11:18:43.254Z,98946.80
2023-07-28T11:21:13.614Z,98941.21
2023-07-28T11:23:50.700Z,98939.41
2023-07-28T11:26:23.830Z,98938.29
2023-07-28T11:28:56.581Z,98933.45
2023-07-28T11:31:31.958Z,98927.60
2023-07-28T11:34:05.597Z,98925.13
2023-07-28T11:36:45.323Z,98924.46
2023-07-28T11:39:18.942Z,98927.64
2023-07-28T11:41:55.228Z,98935.41
2023-07-28T11:44:27.508Z,98929.61
2023-07-28T11:47:08.714Z,98926.89
2023-07-28T11:49:48.715Z,98931.27
2023-07-28T11:53:14.248Z,98931.78
2023-07-28T11:55:49.159Z,98936.42
2023-07-28T11:58:24.272Z,98928.14
2023-07-28T12:00:56.391Z,98922.73
2023-07-28T12:03:33.087Z,98913.27
2023-07-28T12:08:46.101Z,98917.34
2023-07-28T12:11:21.309Z,98918.14
2023-07-28T12:19:22.949Z,98925.77
2023-07-28T12:21:52.439Z,98923.64
2023-07-28T12:24:24.711Z,98928.08
2023-07-28T12:26:59.283Z,98928.52
2023-07-28T12:29:31.389Z,98928.96
2023-07-28T12:32:03.632Z,98928.55
2023-07-28T12:34:46.280Z,98926.44
2023-07-28T12:37:57.666Z,98927.05
2023-07-28T12:41:09.076Z,98930.98
2023-07-28T12:43:05.731Z,98931.71
2023-07-28T12:48:30.779Z,98933.17
2023-07-28T12:51:04.494Z,98933.70
2023-07-28T12:54:02.499Z,98933.75
2023-07-28T12:56:38.317Z,98925.80
2023-07-28T13:01:43.395Z,98926.68
2023-07-28T13:04:14.896Z,98929.19
2023-07-28T13:06:46.422Z,98924.89
2023-07-28T13:14:26.433Z,98933.61
2023-07-28T13:16:56.665Z,98928.40
2023-07-28T13:19:26.694Z,98924.86
2023-07-28T13:21:58.920Z,98918.00
2023-07-28T13:24:31.226Z,98919.34
2023-07-28T13:27:03.328Z,98918.13
2023-07-28T13:29:32.747Z,98919.10
2023-07-28T13:32:02.501Z,98920.70
2023-07-28T13:34:34.474Z,98923.56
2023-07-28T13:37:03.832Z,98927.71
2023-07-28T13:39:33.340Z,98922.30
2023-07-28T13:42:04.328Z,98925.41
2023-07-28T13:49:28.759Z,98928.88
2023-07-28T13:56:21.629Z,98930.83
2023-07-28T13:58:59.425Z,98928.36
2023-07-28T14:01:36.693Z,98929.67
2023-07-28T14:04:14.298Z,98931.00
2023-07-28T14:06:55.958Z,98933.59
2023-07-28T14:09:31.785Z,98927.48
2023-07-28T14:12:25.886Z,98927.57
2023-07-28T14:15:42.877Z,98934.72
2023-07-28T14:18:42.060Z,98932.39
2023-07-28T14:21:14.400Z,98922.33
2023-07-28T14:23:50.891Z,98919.04
2023-07-28T14:26:23.491Z,98913.48
2023-07-28T14:28:54.390Z,98913.65
2023-07-28T14:31:25.918Z,98914.23
2023-07-28T14:33:57.478Z,98914.94
2023-07-28T14:36:36.168Z,98922.97
2023-07-28T14:39:20.743Z,98923.16
2023-07-28T14:41:52.309Z,98922.06
2023-07-28T14:44:22.019Z,98934.14
2023-07-28T14:46:51.915Z,98947.61
2023-07-28T14:49:22.651Z,98949.70
2023-07-28T14:56:03.493Z,98955.88
2023-07-28T14:58:36.199Z,98954.16
2023-07-28T15:01:16.838Z,98945.48
2023-07-28T15:03:48.497Z,98953.56
2023-07-28T15:06:18.456Z,98961.63
2023-07-28T15:08:48.116Z,98964.14
2023-07-28T15:11:38.434Z,98962.69
2023-07-28T15:14:09.507Z,98954.98
2023-07-28T15:16:39.447Z,98951.02
2023-07-28T15:19:12.378Z,98949.55
2023-07-28T15:21:42.469Z,98961.63
2023-07-28T15:24:15.444Z,98969.61
2023-07-28T15:26:48.749Z,98976.48
2023-07-28T15:29:19.778Z,98975.55
2023-07-28T15:31:50.937Z,98977.27
2023-07-28T15:34:21.202Z,98978.92
2023-07-28T15:37:13.294Z,98985.02
2023-07-28T15:40:12.134Z,98985.06
2023-07-28T15:42:56.733Z,98994.49
2023-07-28T15:45:32.921Z,98993.45
2023-07-28T15:48:05.357Z,99000.20
2023-07-28T15:50:37.629Z,99012.11
2023-07-28T15:53:10.927Z,99017.08
2023-07-28T15:55:40.956Z,99021.42
2023-07-28T15:58:13.415Z,99024.13
2023-07-28T16:00:46.390Z,99035.48
2023-07-28T16:03:21.034Z,99035.76
2023-07-28T16:05:53.026Z,99030.86
2023-07-28T16:08:23.170Z,99033.89
2023-07-28T16:10:52.905Z,99034.42
2023-07-28T16:13:22.903Z,99029.23
2023-07-28T16:15:56.494Z,99031.64
2023-07-28T16:18:30.330Z,99033.27
2023-07-28T16:21:00.948Z,99034.44
2023-07-28T16:23:32.039Z,99036.91
2023-07-28T16:26:23.215Z,99044.08
2023-07-28T16:28:53.242Z,99047.30
2023-07-28T16:31:27.480Z,99049.71
2023-07-28T16:34:16.722Z,99054.48
2023-07-28T16:40:19.530Z,99067.02
2023-07-28T16:43:56.631Z,99072.18
2023-07-28T16:47:09.473Z,99074.80
2023-07-28T16:53:24.336Z,99082.98
2023-07-28T16:55:56.044Z,99080.75
2023-07-28T16:58:27.256Z,99084.55
2023-07-28T17:01:01.569Z,99086.56
2023-07-28T17:03:45.782Z,99087.43
2023-07-28T17:06:22.567Z,99089.08
2023-07-28T17:09:05.180Z,99092.49
2023-07-28T17:11:42.399Z,99095.83
2023-07-28T17:14:14.545Z,99099.75
2023-07-28T17:17:05.720Z,99102.09
2023-07-28T17:19:36.502Z,99109.47
2023-07-28T17:22:08.202Z,99111.56
2023-07-28T17:24:51.914Z,99111.94
2023-07-28T17:28:05.619Z,99105.71
2023-07-28T17:30:40.949Z,99110.14
2023-07-28T17:33:19.391Z,99106.29
2023-07-28T17:35:57.634Z,99108.60
2023-07-28T17:38:38.431Z,99112.75
2023-07-28T17:41:15.322Z,99110.88
2023-07-28T17:43:58.770Z,99115.52
2023-07-28T17:59:56.895Z,99126.99
2023-07-28T18:03:49.181Z,99123.04
2023-07-28T18:07:22.603Z,99125.22
2023-07-28T18:11:06.644Z,99126.23
2023-07-28T18:16:42.446Z,99135.19
2023-07-28T18:22:47.894Z,99144.58
2023-07-28T18:25:28.414Z,99148.50
2023-07-28T18:28:03.717Z,99151.73
2023-07-28T18:31:05.034Z,99154.09
2023-07-28T18:34:04.354Z,99163.21
2023-07-28T18:36:41.054Z,99166.83
2023-07-28T18:39:53.701Z,99172.84
2023-07-28T18:42:29.673Z,99172.02
2023-07-28T18:45:02.880Z,99179.89
2023-07-28T18:47:39.870Z,99188.41
2023-07-28T18:50:11.914Z,99186.42
2023-07-28T19:10:05.578Z,99212.12
2023-07-28T19:16:39.332Z,99221.98
2023-07-28T19:19:34.070Z,99224.52
2023-07-28T19:23:12.491Z,99225.73
2023-07-28T19:29:23.083Z,99230.08
2023-07-28T19:32:01.982Z,99234.84
2023-07-28T19:34:38.845Z,99241.35
2023-07-28T19:37:22.058Z,99232.88
2023-07-28T19:43:35.684Z,99233.86
2023-07-28T19:46:45.345Z,99240.48
2023-07-28T19:50:11.570Z,99240.27
2023-07-28T19:53:40.366Z,99241.03
2023-07-28T19:57:21.362Z,99252.29
2023-07-28T20:00:54.345Z,99257.95
2023-07-28T20:07:47.728Z,99259.39
2023-07-28T20:14:27.952Z,99265.02
2023-07-28T20:24:22.022Z,99270.58
2023-07-28T20:30:50.327Z,99278.41
2023-07-28T20:38:11.746Z,99280.36
2023-07-28T20:49:30.236Z,99296.96
2023-07-28T21:04:34.258Z,99311.25
2023-07-28T22:00:23.877Z,99354.55
2023-07-28T23:24:59.670Z,99409.77
